sensor_id;sensor_type;location;lat;lon;timestamp;P1;durP1;ratioP1;P2;durP2;ratioP2
55993;SDS011;67425;52.126;20.638;2023-07-28T00:00:03;5.80;;;2.72;;
55993;SDS011;67425;52.126;20.638;2023-07-28T00:02:29;6.25;;;3.00;;
55993;SDS011;67425;52.126;20.638;2023-07-28T00:04:54;4.45;;;2.83;;
55993;SDS011;67425;52.126;20.638;2023-07-28T00:07:20;7.30;;;2.58;;
55993;SDS011;67425;52.126;20.638;2023-07-28T00:09:45;4.97;;;2.47;;
55993;SDS011;67425;52.126;20.638;2023-07-28T00:12:11;3.65;;;2.72;;
55993;SDS011;67425;52.126;20.638;2023-07-28T00:14:36;2.75;;;2.55;;
55993;SDS011;67425;52.126;20.638;2023-07-28T00:17:01;6.40;;;2.70;;
55993;SDS011;67425;52.126;20.638;2023-07-28T00:19:27;2.38;;;2.17;;
55993;SDS011;67425;52.126;20.638;2023-07-28T00:21:52;4.05;;;2.97;;
55993;SDS011;67425;52.126;20.638;2023-07-28T00:24:17;3.03;;;2.72;;
55993;SDS011;67425;52.126;20.638;2023-07-28T00:26:43;7.53;;;2.70;;
55993;SDS011;67425;52.126;20.638;2023-07-28T00:29:09;4.63;;;2.95;;
55993;SDS011;67425;52.126;20.638;2023-07-28T00:31:34;2.60;;;2.40;;
55993;SDS011;67425;52.126;20.638;2023-07-28T00:34:01;8.18;;;3.15;;
55993;SDS011;67425;52.126;20.638;2023-07-28T00:36:27;4.85;;;2.72;;
55993;SDS011;67425;52.126;20.638;2023-07-28T00:38:53;3.22;;;2.47;;
55993;SDS011;67425;52.126;20.638;2023-07-28T00:41:18;4.15;;;2.20;;
55993;SDS011;67425;52.126;20.638;2023-07-28T00:43:43;2.50;;;2.30;;
55993;SDS011;67425;52.126;20.638;2023-07-28T00:46:09;3.22;;;2.65;;
55993;SDS011;67425;52.126;20.638;2023-07-28T00:48:35;2.53;;;2.33;;
55993;SDS011;67425;52.126;20.638;2023-07-28T00:51:01;2.88;;;2.60;;
55993;SDS011;67425;52.126;20.638;2023-07-28T00:53:27;3.35;;;2.47;;
55993;SDS011;67425;52.126;20.638;2023-07-28T00:55:53;4.15;;;2.47;;
55993;SDS011;67425;52.126;20.638;2023-07-28T00:58:19;3.30;;;2.90;;
55993;SDS011;67425;52.126;20.638;2023-07-28T01:00:45;4.22;;;2.45;;
55993;SDS011;67425;52.126;20.638;2023-07-28T01:03:10;2.80;;;2.60;;
55993;SDS011;67425;52.126;20.638;2023-07-28T01:08:38;2.65;;;2.45;;
55993;SDS011;67425;52.126;20.638;2023-07-28T01:11:11;9.85;;;2.70;;
55993;SDS011;67425;52.126;20.638;2023-07-28T01:13:36;3.17;;;2.45;;
55993;SDS011;67425;52.126;20.638;2023-07-28T01:16:01;4.50;;;2.95;;
55993;SDS011;67425;52.126;20.638;2023-07-28T01:18:27;2.38;;;2.25;;
55993;SDS011;67425;52.126;20.638;2023-07-28T01:20:52;5.60;;;2.53;;
55993;SDS011;67425;52.126;20.638;2023-07-28T01:23:28;5.43;;;2.25;;
55993;SDS011;67425;52.126;20.638;2023-07-28T01:26:10;3.20;;;2.90;;
55993;SDS011;67425;52.126;20.638;2023-07-28T01:28:37;4.53;;;2.50;;
55993;SDS011;67425;52.126;20.638;2023-07-28T01:31:06;2.60;;;2.40;;
55993;SDS011;67425;52.126;20.638;2023-07-28T01:33:32;3.40;;;2.97;;
55993;SDS011;67425;52.126;20.638;2023-07-28T01:35:58;3.03;;;2.78;;
55993;SDS011;67425;52.126;20.638;2023-07-28T01:38:25;3.20;;;2.83;;
55993;SDS011;67425;52.126;20.638;2023-07-28T01:40:51;3.00;;;2.80;;
55993;SDS011;67425;52.126;20.638;2023-07-28T01:43:16;7.38;;;2.72;;
55993;SDS011;67425;52.126;20.638;2023-07-28T01:45:42;4.93;;;3.17;;
55993;SDS011;67425;52.126;20.638;2023-07-28T01:48:07;3.00;;;2.80;;
55993;SDS011;67425;52.126;20.638;2023-07-28T01:50:34;5.90;;;3.20;;
55993;SDS011;67425;52.126;20.638;2023-07-28T01:53:00;3.70;;;3.17;;
55993;SDS011;67425;52.126;20.638;2023-07-28T01:55:25;3.92;;;2.90;;
55993;SDS011;67425;52.126;20.638;2023-07-28T01:57:54;3.45;;;3.15;;
55993;SDS011;67425;52.126;20.638;2023-07-28T02:00:21;3.10;;;2.80;;
55993;SDS011;67425;52.126;20.638;2023-07-28T02:02:48;3.05;;;2.85;;
55993;SDS011;67425;52.126;20.638;2023-07-28T02:05:14;3.30;;;3.00;;
55993;SDS011;67425;52.126;20.638;2023-07-28T02:07:39;4.07;;;2.90;;
55993;SDS011;67425;52.126;20.638;2023-07-28T02:10:05;7.50;;;3.45;;
55993;SDS011;67425;52.126;20.638;2023-07-28T02:12:30;5.93;;;3.55;;
55993;SDS011;67425;52.126;20.638;2023-07-28T02:14:56;3.42;;;3.13;;
55993;SDS011;67425;52.126;20.638;2023-07-28T02:17:21;3.63;;;2.85;;
55993;SDS011;67425;52.126;20.638;2023-07-28T02:19:46;6.15;;;3.38;;
55993;SDS011;67425;52.126;20.638;2023-07-28T02:22:12;9.07;;;2.92;;
55993;SDS011;67425;52.126;20.638;2023-07-28T02:24:37;3.35;;;3.10;;
55993;SDS011;67425;52.126;20.638;2023-07-28T02:27:03;11.25;;;3.47;;
55993;SDS011;67425;52.126;20.638;2023-07-28T02:29:28;3.17;;;2.97;;
55993;SDS011;67425;52.126;20.638;2023-07-28T02:31:53;4.95;;;3.45;;
55993;SDS011;67425;52.126;20.638;2023-07-28T02:34:19;5.40;;;3.15;;
55993;SDS011;67425;52.126;20.638;2023-07-28T02:36:44;4.55;;;3.30;;
55993;SDS011;67425;52.126;20.638;2023-07-28T02:39:09;3.17;;;2.88;;
55993;SDS011;67425;52.126;20.638;2023-07-28T02:41:35;6.75;;;5.35;;
55993;SDS011;67425;52.126;20.638;2023-07-28T02:44:00;3.45;;;3.10;;
55993;SDS011;67425;52.126;20.638;2023-07-28T02:46:25;4.75;;;3.22;;
55993;SDS011;67425;52.126;20.638;2023-07-28T02:48:51;5.40;;;3.67;;
55993;SDS011;67425;52.126;20.638;2023-07-28T02:51:16;8.80;;;3.63;;
55993;SDS011;67425;52.126;20.638;2023-07-28T02:53:41;17.52;;;3.85;;
55993;SDS011;67425;52.126;20.638;2023-07-28T02:56:07;8.05;;;4.05;;
55993;SDS011;67425;52.126;20.638;2023-07-28T02:58:32;7.78;;;3.60;;
55993;SDS011;67425;52.126;20.638;2023-07-28T03:00:57;3.80;;;3.50;;
55993;SDS011;67425;52.126;20.638;2023-07-28T03:03:23;6.22;;;3.67;;
55993;SDS011;67425;52.126;20.638;2023-07-28T03:05:51;4.20;;;3.90;;
55993;SDS011;67425;52.126;20.638;2023-07-28T03:08:16;5.65;;;4.00;;
55993;SDS011;67425;52.126;20.638;2023-07-28T03:10:42;4.53;;;3.83;;
55993;SDS011;67425;52.126;20.638;2023-07-28T03:13:07;4.38;;;4.00;;
55993;SDS011;67425;52.126;20.638;2023-07-28T03:15:32;5.20;;;3.67;;
55993;SDS011;67425;52.126;20.638;2023-07-28T03:17:58;7.43;;;4.25;;
55993;SDS011;67425;52.126;20.638;2023-07-28T03:20:23;7.55;;;3.67;;
55993;SDS011;67425;52.126;20.638;2023-07-28T03:22:49;5.07;;;3.50;;
55993;SDS011;67425;52.126;20.638;2023-07-28T03:25:14;8.88;;;3.17;;
55993;SDS011;67425;52.126;20.638;2023-07-28T03:27:40;6.80;;;3.60;;
55993;SDS011;67425;52.126;20.638;2023-07-28T03:30:05;3.47;;;3.15;;
55993;SDS011;67425;52.126;20.638;2023-07-28T03:32:34;21.23;;;4.05;;
55993;SDS011;67425;52.126;20.638;2023-07-28T03:34:59;7.20;;;3.33;;
55993;SDS011;67425;52.126;20.638;2023-07-28T03:37:24;3.80;;;3.50;;
55993;SDS011;67425;52.126;20.638;2023-07-28T03:39:50;4.03;;;3.65;;
55993;SDS011;67425;52.126;20.638;2023-07-28T03:42:15;12.98;;;3.38;;
55993;SDS011;67425;52.126;20.638;2023-07-28T03:44:40;4.13;;;3.72;;
55993;SDS011;67425;52.126;20.638;2023-07-28T03:47:06;10.82;;;4.03;;
55993;SDS011;67425;52.126;20.638;2023-07-28T03:49:32;7.43;;;3.22;;
55993;SDS011;67425;52.126;20.638;2023-07-28T03:51:58;8.82;;;3.55;;
55993;SDS011;67425;52.126;20.638;2023-07-28T03:54:23;4.10;;;3.67;;
55993;SDS011;67425;52.126;20.638;2023-07-28T03:56:48;3.50;;;3.20;;
55993;SDS011;67425;52.126;20.638;2023-07-28T03:59:14;4.30;;;3.88;;
55993;SDS011;67425;52.126;20.638;2023-07-28T04:01:39;11.77;;;3.13;;
55993;SDS011;67425;52.126;20.638;2023-07-28T04:04:05;7.25;;;3.40;;
55993;SDS011;67425;52.126;20.638;2023-07-28T04:06:40;4.10;;;3.60;;
55993;SDS011;67425;52.126;20.638;2023-07-28T04:11:40;5.45;;;3.58;;
55993;SDS011;67425;52.126;20.638;2023-07-28T04:14:05;4.75;;;3.50;;
55993;SDS011;67425;52.126;20.638;2023-07-28T04:16:31;4.13;;;3.70;;
55993;SDS011;67425;52.126;20.638;2023-07-28T04:18:57;5.15;;;3.05;;
55993;SDS011;67425;52.126;20.638;2023-07-28T04:21:22;7.70;;;3.95;;
55993;SDS011;67425;52.126;20.638;2023-07-28T04:23:48;10.23;;;3.60;;
55993;SDS011;67425;52.126;20.638;2023-07-28T04:26:13;5.68;;;3.42;;
55993;SDS011;67425;52.126;20.638;2023-07-28T04:28:38;7.85;;;4.38;;
55993;SDS011;67425;52.126;20.638;2023-07-28T04:31:04;7.72;;;3.70;;
55993;SDS011;67425;52.126;20.638;2023-07-28T04:33:30;5.40;;;3.10;;
55993;SDS011;67425;52.126;20.638;2023-07-28T04:35:55;16.92;;;4.07;;
55993;SDS011;67425;52.126;20.638;2023-07-28T04:38:20;7.55;;;3.78;;
55993;SDS011;67425;52.126;20.638;2023-07-28T04:40:45;9.57;;;4.03;;
55993;SDS011;67425;52.126;20.638;2023-07-28T04:43:11;9.18;;;4.38;;
55993;SDS011;67425;52.126;20.638;2023-07-28T04:45:36;8.23;;;4.38;;
55993;SDS011;67425;52.126;20.638;2023-07-28T04:48:01;13.43;;;4.15;;
55993;SDS011;67425;52.126;20.638;2023-07-28T04:50:27;6.53;;;4.25;;
55993;SDS011;67425;52.126;20.638;2023-07-28T04:52:53;7.53;;;5.15;;
55993;SDS011;67425;52.126;20.638;2023-07-28T04:55:19;9.57;;;7.75;;
55993;SDS011;67425;52.126;20.638;2023-07-28T04:57:44;10.25;;;8.10;;
55993;SDS011;67425;52.126;20.638;2023-07-28T05:00:09;7.78;;;6.00;;
55993;SDS011;67425;52.126;20.638;2023-07-28T05:02:35;12.27;;;4.90;;
55993;SDS011;67425;52.126;20.638;2023-07-28T05:05:00;4.45;;;4.03;;
55993;SDS011;67425;52.126;20.638;2023-07-28T05:07:26;7.03;;;4.15;;
55993;SDS011;67425;52.126;20.638;2023-07-28T05:09:51;4.78;;;3.60;;
55993;SDS011;67425;52.126;20.638;2023-07-28T05:12:17;3.65;;;3.35;;
55993;SDS011;67425;52.126;20.638;2023-07-28T05:14:42;4.45;;;3.33;;
55993;SDS011;67425;52.126;20.638;2023-07-28T05:17:08;8.70;;;3.58;;
55993;SDS011;67425;52.126;20.638;2023-07-28T05:19:33;10.10;;;4.03;;
55993;SDS011;67425;52.126;20.638;2023-07-28T05:21:58;6.13;;;3.08;;
55993;SDS011;67425;52.126;20.638;2023-07-28T05:24:24;5.95;;;3.83;;
55993;SDS011;67425;52.126;20.638;2023-07-28T05:26:49;5.93;;;3.60;;
55993;SDS011;67425;52.126;20.638;2023-07-28T05:29:14;6.30;;;3.67;;
55993;SDS011;67425;52.126;20.638;2023-07-28T05:31:40;8.75;;;3.60;;
55993;SDS011;67425;52.126;20.638;2023-07-28T05:34:05;8.98;;;3.90;;
55993;SDS011;67425;52.126;20.638;2023-07-28T05:36:30;9.32;;;3.47;;
55993;SDS011;67425;52.126;20.638;2023-07-28T05:38:57;4.55;;;3.58;;
55993;SDS011;67425;52.126;20.638;2023-07-28T05:41:23;8.43;;;2.90;;
55993;SDS011;67425;52.126;20.638;2023-07-28T05:43:49;4.10;;;3.42;;
55993;SDS011;67425;52.126;20.638;2023-07-28T05:46:14;6.50;;;3.63;;
55993;SDS011;67425;52.126;20.638;2023-07-28T05:48:40;8.65;;;3.30;;
55993;SDS011;67425;52.126;20.638;2023-07-28T05:51:05;3.30;;;3.00;;
55993;SDS011;67425;52.126;20.638;2023-07-28T05:53:30;6.00;;;3.30;;
55993;SDS011;67425;52.126;20.638;2023-07-28T05:55:56;6.30;;;3.08;;
55993;SDS011;67425;52.126;20.638;2023-07-28T05:58:21;4.82;;;3.33;;
55993;SDS011;67425;52.126;20.638;2023-07-28T06:00:47;5.43;;;3.50;;
55993;SDS011;67425;52.126;20.638;2023-07-28T06:03:13;5.72;;;3.42;;
55993;SDS011;67425;52.126;20.638;2023-07-28T06:05:38;9.15;;;3.65;;
55993;SDS011;67425;52.126;20.638;2023-07-28T06:08:05;5.10;;;3.70;;
55993;SDS011;67425;52.126;20.638;2023-07-28T06:10:31;3.90;;;3.22;;
55993;SDS011;67425;52.126;20.638;2023-07-28T06:12:56;6.25;;;3.15;;
55993;SDS011;67425;52.126;20.638;2023-07-28T06:15:22;8.30;;;3.13;;
55993;SDS011;67425;52.126;20.638;2023-07-28T06:17:47;13.98;;;3.83;;
55993;SDS011;67425;52.126;20.638;2023-07-28T06:20:12;10.15;;;2.92;;
55993;SDS011;67425;52.126;20.638;2023-07-28T06:22:38;12.10;;;3.83;;
55993;SDS011;67425;52.126;20.638;2023-07-28T06:25:03;4.38;;;3.25;;
55993;SDS011;67425;52.126;20.638;2023-07-28T06:27:29;10.80;;;4.45;;
55993;SDS011;67425;52.126;20.638;2023-07-28T06:29:54;5.18;;;3.63;;
55993;SDS011;67425;52.126;20.638;2023-07-28T06:32:19;8.68;;;3.55;;
55993;SDS011;67425;52.126;20.638;2023-07-28T06:34:48;3.70;;;2.88;;
55993;SDS011;67425;52.126;20.638;2023-07-28T06:37:13;3.70;;;3.28;;
55993;SDS011;67425;52.126;20.638;2023-07-28T06:39:39;7.32;;;3.22;;
55993;SDS011;67425;52.126;20.638;2023-07-28T06:42:04;6.65;;;3.63;;
55993;SDS011;67425;52.126;20.638;2023-07-28T06:44:30;15.80;;;3.80;;
55993;SDS011;67425;52.126;20.638;2023-07-28T06:46:56;7.38;;;3.70;;
55993;SDS011;67425;52.126;20.638;2023-07-28T06:49:21;19.73;;;3.65;;
55993;SDS011;67425;52.126;20.638;2023-07-28T06:51:47;7.72;;;3.55;;
55993;SDS011;67425;52.126;20.638;2023-07-28T06:54:12;3.60;;;3.30;;
55993;SDS011;67425;52.126;20.638;2023-07-28T06:56:38;11.25;;;4.57;;
55993;SDS011;67425;52.126;20.638;2023-07-28T06:59:04;7.65;;;3.72;;
55993;SDS011;67425;52.126;20.638;2023-07-28T07:01:31;4.63;;;3.75;;
55993;SDS011;67425;52.126;20.638;2023-07-28T07:03:56;7.35;;;3.80;;
55993;SDS011;67425;52.126;20.638;2023-07-28T07:06:22;8.88;;;4.55;;
55993;SDS011;67425;52.126;20.638;2023-07-28T07:08:47;6.85;;;4.57;;
55993;SDS011;67425;52.126;20.638;2023-07-28T07:11:13;5.60;;;4.50;;
55993;SDS011;67425;52.126;20.638;2023-07-28T07:13:38;8.73;;;4.95;;
55993;SDS011;67425;52.126;20.638;2023-07-28T07:16:04;7.75;;;5.10;;
55993;SDS011;67425;52.126;20.638;2023-07-28T07:18:31;4.85;;;4.32;;
55993;SDS011;67425;52.126;20.638;2023-07-28T07:21:00;7.55;;;4.63;;
55993;SDS011;67425;52.126;20.638;2023-07-28T07:23:28;5.10;;;4.10;;
55993;SDS011;67425;52.126;20.638;2023-07-28T07:25:53;5.30;;;4.80;;
55993;SDS011;67425;52.126;20.638;2023-07-28T07:28:18;9.95;;;4.90;;
55993;SDS011;67425;52.126;20.638;2023-07-28T07:30:44;4.45;;;4.05;;
55993;SDS011;67425;52.126;20.638;2023-07-28T07:33:10;4.80;;;3.90;;
55993;SDS011;67425;52.126;20.638;2023-07-28T07:35:36;8.13;;;4.65;;
55993;SDS011;67425;52.126;20.638;2023-07-28T07:38:02;9.52;;;4.75;;
55993;SDS011;67425;52.126;20.638;2023-07-28T07:40:28;9.13;;;4.60;;
55993;SDS011;67425;52.126;20.638;2023-07-28T07:42:53;9.30;;;4.80;;
55993;SDS011;67425;52.126;20.638;2023-07-28T07:45:19;4.95;;;4.43;;
55993;SDS011;67425;52.126;20.638;2023-07-28T07:47:44;6.40;;;4.53;;
55993;SDS011;67425;52.126;20.638;2023-07-28T07:50:10;5.35;;;4.30;;
55993;SDS011;67425;52.126;20.638;2023-07-28T07:52:36;10.52;;;4.97;;
55993;SDS011;67425;52.126;20.638;2023-07-28T07:55:03;5.70;;;3.90;;
55993;SDS011;67425;52.126;20.638;2023-07-28T07:57:29;4.63;;;3.97;;
55993;SDS011;67425;52.126;20.638;2023-07-28T07:59:54;5.78;;;4.28;;
55993;SDS011;67425;52.126;20.638;2023-07-28T08:02:21;6.03;;;4.50;;
55993;SDS011;67425;52.126;20.638;2023-07-28T08:04:46;5.22;;;4.20;;
55993;SDS011;67425;52.126;20.638;2023-07-28T08:07:12;5.63;;;4.97;;
55993;SDS011;67425;52.126;20.638;2023-07-28T08:09:37;5.53;;;4.35;;
55993;SDS011;67425;52.126;20.638;2023-07-28T08:12:03;4.68;;;4.25;;
55993;SDS011;67425;52.126;20.638;2023-07-28T08:14:29;5.18;;;4.28;;
55993;SDS011;67425;52.126;20.638;2023-07-28T08:16:54;6.10;;;4.20;;
55993;SDS011;67425;52.126;20.638;2023-07-28T08:19:19;6.00;;;4.00;;
55993;SDS011;67425;52.126;20.638;2023-07-28T08:21:45;4.90;;;4.20;;
55993;SDS011;67425;52.126;20.638;2023-07-28T08:24:10;6.13;;;4.78;;
55993;SDS011;67425;52.126;20.638;2023-07-28T08:26:36;5.40;;;4.20;;
55993;SDS011;67425;52.126;20.638;2023-07-28T08:29:02;9.57;;;4.90;;
55993;SDS011;67425;52.126;20.638;2023-07-28T08:31:27;7.88;;;4.38;;
55993;SDS011;67425;52.126;20.638;2023-07-28T08:33:53;5.28;;;4.30;;
55993;SDS011;67425;52.126;20.638;2023-07-28T08:36:18;6.20;;;4.82;;
55993;SDS011;67425;52.126;20.638;2023-07-28T08:38:43;10.30;;;4.90;;
55993;SDS011;67425;52.126;20.638;2023-07-28T08:41:10;7.40;;;3.60;;
55993;SDS011;67425;52.126;20.638;2023-07-28T08:43:35;5.30;;;4.35;;
55993;SDS011;67425;52.126;20.638;2023-07-28T08:46:00;11.23;;;4.57;;
55993;SDS011;67425;52.126;20.638;2023-07-28T08:48:26;4.65;;;4.25;;
55993;SDS011;67425;52.126;20.638;2023-07-28T08:50:52;6.97;;;4.30;;
55993;SDS011;67425;52.126;20.638;2023-07-28T08:53:18;5.50;;;4.57;;
55993;SDS011;67425;52.126;20.638;2023-07-28T08:55:44;7.03;;;4.60;;
55993;SDS011;67425;52.126;20.638;2023-07-28T09:00:45;21.52;;;3.90;;
55993;SDS011;67425;52.126;20.638;2023-07-28T09:03:14;6.32;;;3.70;;
55993;SDS011;67425;52.126;20.638;2023-07-28T09:05:39;4.90;;;4.15;;
55993;SDS011;67425;52.126;20.638;2023-07-28T09:08:06;5.95;;;4.07;;
55993;SDS011;67425;52.126;20.638;2023-07-28T09:10:42;3.60;;;3.30;;
55993;SDS011;67425;52.126;20.638;2023-07-28T09:13:14;4.47;;;3.80;;
55993;SDS011;67425;52.126;20.638;2023-07-28T09:15:41;7.63;;;3.72;;
55993;SDS011;67425;52.126;20.638;2023-07-28T09:18:13;3.88;;;3.63;;
55993;SDS011;67425;52.126;20.638;2023-07-28T09:20:41;3.88;;;3.58;;
55993;SDS011;67425;52.126;20.638;2023-07-28T09:23:08;6.88;;;4.00;;
55993;SDS011;67425;52.126;20.638;2023-07-28T09:25:34;3.75;;;3.25;;
55993;SDS011;67425;52.126;20.638;2023-07-28T09:28:00;4.80;;;3.33;;
55993;SDS011;67425;52.126;20.638;2023-07-28T09:30:26;6.25;;;3.78;;
55993;SDS011;67425;52.126;20.638;2023-07-28T09:32:52;4.63;;;3.75;;
55993;SDS011;67425;52.126;20.638;2023-07-28T09:35:20;4.50;;;3.70;;
55993;SDS011;67425;52.126;20.638;2023-07-28T09:37:47;3.60;;;3.30;;
55993;SDS011;67425;52.126;20.638;2023-07-28T09:40:16;5.18;;;4.20;;
55993;SDS011;67425;52.126;20.638;2023-07-28T09:42:43;4.40;;;3.45;;
55993;SDS011;67425;52.126;20.638;2023-07-28T09:45:10;4.15;;;3.85;;
55993;SDS011;67425;52.126;20.638;2023-07-28T09:47:36;7.35;;;3.47;;
55993;SDS011;67425;52.126;20.638;2023-07-28T09:50:06;4.15;;;3.30;;
55993;SDS011;67425;52.126;20.638;2023-07-28T09:52:43;4.60;;;3.58;;
55993;SDS011;67425;52.126;20.638;2023-07-28T09:55:11;5.95;;;3.75;;
55993;SDS011;67425;52.126;20.638;2023-07-28T09:57:46;9.40;;;3.72;;
55993;SDS011;67425;52.126;20.638;2023-07-28T10:00:19;7.75;;;4.20;;
55993;SDS011;67425;52.126;20.638;2023-07-28T10:02:46;8.27;;;3.75;;
55993;SDS011;67425;52.126;20.638;2023-07-28T10:05:12;6.65;;;4.13;;
55993;SDS011;67425;52.126;20.638;2023-07-28T10:07:40;8.07;;;4.18;;
55993;SDS011;67425;52.126;20.638;2023-07-28T10:10:07;5.20;;;3.60;;
55993;SDS011;67425;52.126;20.638;2023-07-28T10:12:40;3.92;;;3.58;;
55993;SDS011;67425;52.126;20.638;2023-07-28T10:15:07;5.43;;;3.70;;
55993;SDS011;67425;52.126;20.638;2023-07-28T10:17:36;6.78;;;3.97;;
55993;SDS011;67425;52.126;20.638;2023-07-28T10:20:05;4.10;;;3.70;;
55993;SDS011;67425;52.126;20.638;2023-07-28T10:22:34;6.97;;;3.53;;
55993;SDS011;67425;52.126;20.638;2023-07-28T10:25:09;7.70;;;3.80;;
55993;SDS011;67425;52.126;20.638;2023-07-28T10:30:09;4.47;;;3.85;;
55993;SDS011;67425;52.126;20.638;2023-07-28T10:32:48;5.22;;;3.67;;
55993;SDS011;67425;52.126;20.638;2023-07-28T10:37:43;4.93;;;3.90;;
55993;SDS011;67425;52.126;20.638;2023-07-28T10:40:34;10.13;;;4.07;;
55993;SDS011;67425;52.126;20.638;2023-07-28T10:43:03;6.82;;;3.10;;
55993;SDS011;67425;52.126;20.638;2023-07-28T10:45:32;4.80;;;3.65;;
55993;SDS011;67425;52.126;20.638;2023-07-28T10:47:58;5.28;;;3.15;;
55993;SDS011;67425;52.126;20.638;2023-07-28T10:50:28;5.00;;;3.28;;
55993;SDS011;67425;52.126;20.638;2023-07-28T10:52:55;7.07;;;2.92;;
55993;SDS011;67425;52.126;20.638;2023-07-28T10:55:25;3.08;;;2.35;;
55993;SDS011;67425;52.126;20.638;2023-07-28T10:57:52;2.28;;;2.08;;
55993;SDS011;67425;52.126;20.638;2023-07-28T11:00:19;11.05;;;7.28;;
55993;SDS011;67425;52.126;20.638;2023-07-28T11:02:53;4.30;;;2.17;;
55993;SDS011;67425;52.126;20.638;2023-07-28T11:05:20;4.38;;;1.58;;
55993;SDS011;67425;52.126;20.638;2023-07-28T11:07:56;5.07;;;1.27;;
55993;SDS011;67425;52.126;20.638;2023-07-28T11:10:23;4.82;;;1.20;;
55993;SDS011;67425;52.126;20.638;2023-07-28T11:12:50;1.40;;;1.27;;
55993;SDS011;67425;52.126;20.638;2023-07-28T11:15:17;2.28;;;1.17;;
55993;SDS011;67425;52.126;20.638;2023-07-28T11:17:44;1.13;;;1.02;;
55993;SDS011;67425;52.126;20.638;2023-07-28T11:20:17;1.02;;;0.93;;
55993;SDS011;67425;52.126;20.638;2023-07-28T11:22:44;4.78;;;1.00;;
55993;SDS011;67425;52.126;20.638;2023-07-28T11:25:10;8.30;;;1.00;;
55993;SDS011;67425;52.126;20.638;2023-07-28T11:27:36;4.70;;;1.15;;
55993;SDS011;67425;52.126;20.638;2023-07-28T11:30:02;1.20;;;1.10;;
55993;SDS011;67425;52.126;20.638;2023-07-28T11:32:29;2.35;;;1.15;;
55993;SDS011;67425;52.126;20.638;2023-07-28T11:35:01;1.67;;;1.10;;
55993;SDS011;67425;52.126;20.638;2023-07-28T11:37:32;4.22;;;1.17;;
55993;SDS011;67425;52.126;20.638;2023-07-28T11:39:59;1.20;;;1.05;;
55993;SDS011;67425;52.126;20.638;2023-07-28T11:42:25;0.90;;;0.90;;
55993;SDS011;67425;52.126;20.638;2023-07-28T11:44:52;3.33;;;1.20;;
55993;SDS011;67425;52.126;20.638;2023-07-28T11:47:17;2.15;;;1.02;;
55993;SDS011;67425;52.126;20.638;2023-07-28T11:49:48;6.32;;;0.95;;
55993;SDS011;67425;52.126;20.638;2023-07-28T11:52:15;6.90;;;0.95;;
55993;SDS011;67425;52.126;20.638;2023-07-28T11:54:41;0.95;;;0.90;;
55993;SDS011;67425;52.126;20.638;2023-07-28T11:57:07;1.45;;;1.35;;
55993;SDS011;67425;52.126;20.638;2023-07-28T11:59:34;3.40;;;1.10;;
55993;SDS011;67425;52.126;20.638;2023-07-28T12:02:01;2.25;;;1.25;;
55993;SDS011;67425;52.126;20.638;2023-07-28T12:04:30;4.57;;;1.42;;
55993;SDS011;67425;52.126;20.638;2023-07-28T12:07:15;1.73;;;1.00;;
55993;SDS011;67425;52.126;20.638;2023-07-28T12:12:28;0.90;;;0.80;;
55993;SDS011;67425;52.126;20.638;2023-07-28T12:14:58;1.23;;;1.10;;
55993;SDS011;67425;52.126;20.638;2023-07-28T12:17:30;2.25;;;0.85;;
55993;SDS011;67425;52.126;20.638;2023-07-28T12:19:57;0.98;;;0.90;;
55993;SDS011;67425;52.126;20.638;2023-07-28T12:22:24;3.67;;;0.88;;
55993;SDS011;67425;52.126;20.638;2023-07-28T12:24:49;1.25;;;0.80;;
55993;SDS011;67425;52.126;20.638;2023-07-28T12:27:14;1.88;;;0.88;;
55993;SDS011;67425;52.126;20.638;2023-07-28T12:29:41;0.70;;;0.70;;
55993;SDS011;67425;52.126;20.638;2023-07-28T12:32:06;3.15;;;0.80;;
55993;SDS011;67425;52.126;20.638;2023-07-28T12:34:32;1.50;;;0.70;;
55993;SDS011;67425;52.126;20.638;2023-07-28T12:36:58;1.15;;;0.50;;
55993;SDS011;67425;52.126;20.638;2023-07-28T12:39:23;0.65;;;0.65;;
55993;SDS011;67425;52.126;20.638;2023-07-28T12:41:49;1.75;;;0.77;;
55993;SDS011;67425;52.126;20.638;2023-07-28T12:44:15;0.60;;;0.60;;
55993;SDS011;67425;52.126;20.638;2023-07-28T12:46:44;2.00;;;0.75;;
55993;SDS011;67425;52.126;20.638;2023-07-28T12:49:09;0.80;;;0.75;;
55993;SDS011;67425;52.126;20.638;2023-07-28T12:51:34;3.65;;;1.80;;
55993;SDS011;67425;52.126;20.638;2023-07-28T12:54:00;1.08;;;0.90;;
55993;SDS011;67425;52.126;20.638;2023-07-28T12:56:25;2.40;;;0.80;;
55993;SDS011;67425;52.126;20.638;2023-07-28T12:58:50;1.88;;;1.00;;
55993;SDS011;67425;52.126;20.638;2023-07-28T13:01:16;0.88;;;0.88;;
55993;SDS011;67425;52.126;20.638;2023-07-28T13:03:41;1.58;;;1.00;;
55993;SDS011;67425;52.126;20.638;2023-07-28T13:06:06;1.15;;;1.08;;
55993;SDS011;67425;52.126;20.638;2023-07-28T13:08:32;0.77;;;0.75;;
55993;SDS011;67425;52.126;20.638;2023-07-28T13:10:57;1.20;;;0.70;;
55993;SDS011;67425;52.126;20.638;2023-07-28T13:13:22;0.80;;;0.80;;
55993;SDS011;67425;52.126;20.638;2023-07-28T13:15:48;2.80;;;0.75;;
55993;SDS011;67425;52.126;20.638;2023-07-28T13:18:13;1.67;;;1.00;;
55993;SDS011;67425;52.126;20.638;2023-07-28T13:20:38;3.80;;;1.17;;
55993;SDS011;67425;52.126;20.638;2023-07-28T13:23:04;1.40;;;1.30;;
55993;SDS011;67425;52.126;20.638;2023-07-28T13:25:29;1.65;;;0.80;;
55993;SDS011;67425;52.126;20.638;2023-07-28T13:27:54;0.80;;;0.80;;
55993;SDS011;67425;52.126;20.638;2023-07-28T13:30:20;1.20;;;1.10;;
55993;SDS011;67425;52.126;20.638;2023-07-28T13:32:45;2.05;;;1.40;;
55993;SDS011;67425;52.126;20.638;2023-07-28T13:35:11;3.83;;;1.20;;
55993;SDS011;67425;52.126;20.638;2023-07-28T13:37:36;6.18;;;0.90;;
55993;SDS011;67425;52.126;20.638;2023-07-28T13:40:01;0.90;;;0.90;;
55993;SDS011;67425;52.126;20.638;2023-07-28T13:42:27;0.93;;;0.93;;
55993;SDS011;67425;52.126;20.638;2023-07-28T13:44:52;0.80;;;0.80;;
55993;SDS011;67425;52.126;20.638;2023-07-28T13:47:18;3.33;;;1.08;;
55993;SDS011;67425;52.126;20.638;2023-07-28T13:49:43;1.08;;;1.08;;
55993;SDS011;67425;52.126;20.638;2023-07-28T13:52:08;0.98;;;0.90;;
55993;SDS011;67425;52.126;20.638;2023-07-28T13:54:33;1.45;;;1.00;;
55993;SDS011;67425;52.126;20.638;2023-07-28T13:56:59;1.67;;;1.58;;
55993;SDS011;67425;52.126;20.638;2023-07-28T13:59:24;1.27;;;1.17;;
55993;SDS011;67425;52.126;20.638;2023-07-28T14:01:49;1.00;;;1.00;;
55993;SDS011;67425;52.126;20.638;2023-07-28T14:04:15;5.30;;;1.27;;
55993;SDS011;67425;52.126;20.638;2023-07-28T14:06:40;2.10;;;0.85;;
55993;SDS011;67425;52.126;20.638;2023-07-28T14:09:06;1.08;;;1.08;;
55993;SDS011;67425;52.126;20.638;2023-07-28T14:11:31;2.08;;;1.30;;
55993;SDS011;67425;52.126;20.638;2023-07-28T14:13:57;1.33;;;0.90;;
55993;SDS011;67425;52.126;20.638;2023-07-28T14:16:22;6.18;;;1.05;;
55993;SDS011;67425;52.126;20.638;2023-07-28T14:18:47;1.38;;;1.27;;
55993;SDS011;67425;52.126;20.638;2023-07-28T14:21:13;1.10;;;1.00;;
55993;SDS011;67425;52.126;20.638;2023-07-28T14:23:39;2.78;;;0.82;;
55993;SDS011;67425;52.126;20.638;2023-07-28T14:26:04;1.00;;;1.00;;
55993;SDS011;67425;52.126;20.638;2023-07-28T14:28:29;1.00;;;1.00;;
55993;SDS011;67425;52.126;20.638;2023-07-28T14:30:55;1.60;;;0.80;;
55993;SDS011;67425;52.126;20.638;2023-07-28T14:33:20;1.58;;;1.33;;
55993;SDS011;67425;52.126;20.638;2023-07-28T14:35:46;1.30;;;1.20;;
55993;SDS011;67425;52.126;20.638;2023-07-28T14:38:13;1.23;;;1.20;;
55993;SDS011;67425;52.126;20.638;2023-07-28T14:40:38;0.80;;;0.80;;
55993;SDS011;67425;52.126;20.638;2023-07-28T14:43:05;5.82;;;1.08;;